sensor_id;sensor_type;location;lat;lon;timestamp;pressure;altitude;pressure_sealevel;temperature;humidity
9009;BME280;62813;51.424;6.762;2022-08-18T00:01:41;100995.88;;;20.48;76.16
9009;BME280;62813;51.424;6.762;2022-08-18T00:04:12;101002.34;;;20.43;76.81
9009;BME280;62813;51.424;6.762;2022-08-18T00:06:58;100996.13;;;20.44;76.86
9009;BME280;62813;51.424;6.762;2022-08-18T00:09:25;101007.50;;;20.45;76.52
9009;BME280;62813;51.424;6.762;2022-08-18T00:12:00;101008.34;;;20.45;76.60
9009;BME280;62813;51.424;6.762;2022-08-18T00:14:27;101010.00;;;20.47;76.84
9009;BME280;62813;51.424;6.762;2022-08-18T00:16:56;101019.59;;;20.48;76.61
9009;BME280;62813;51.424;6.762;2022-08-18T00:19:26;101024.88;;;20.48;76.32
9009;BME280;62813;51.424;6.762;2022-08-18T00:22:15;101022.94;;;20.50;76.18
9009;BME280;62813;51.424;6.762;2022-08-18T00:24:44;101021.06;;;20.52;75.59
9009;BME280;62813;51.424;6.762;2022-08-18T00:27:13;101020.56;;;20.47;74.76
9009;BME280;62813;51.424;6.762;2022-08-18T00:29:40;101027.97;;;20.41;75.59
9009;BME280;62813;51.424;6.762;2022-08-18T00:32:14;101036.84;;;20.40;75.55
9009;BME280;62813;51.424;6.762;2022-08-18T00:34:41;101029.66;;;20.42;75.75
9009;BME280;62813;51.424;6.762;2022-08-18T00:37:07;101024.03;;;20.47;75.00
9009;BME280;62813;51.424;6.762;2022-08-18T00:39:34;101024.03;;;20.47;74.73
9009;BME280;62813;51.424;6.762;2022-08-18T00:42:18;101029.78;;;20.41;75.85
9009;BME280;62813;51.424;6.762;2022-08-18T00:44:55;101027.16;;;20.41;75.45
9009;BME280;62813;51.424;6.762;2022-08-18T00:47:22;101022.72;;;20.41;75.47
9009;BME280;62813;51.424;6.762;2022-08-18T00:50:22;101030.16;;;20.36;75.34
9009;BME280;62813;51.424;6.762;2022-08-18T00:53:23;101026.78;;;20.34;75.82
9009;BME280;62813;51.424;6.762;2022-08-18T00:55:54;101033.47;;;20.27;75.86
9009;BME280;62813;51.424;6.762;2022-08-18T00:58:28;101034.41;;;20.26;75.72
9009;BME280;62813;51.424;6.762;2022-08-18T01:01:04;101031.19;;;20.23;75.62
9009;BME280;62813;51.424;6.762;2022-08-18T01:03:33;101019.31;;;20.17;76.27
9009;BME280;62813;51.424;6.762;2022-08-18T01:06:10;101028.47;;;20.35;75.87
9009;BME280;62813;51.424;6.762;2022-08-18T01:08:40;101027.88;;;20.54;74.95
9009;BME280;62813;51.424;6.762;2022-08-18T01:11:07;101026.31;;;20.63;74.67
9009;BME280;62813;51.424;6.762;2022-08-18T01:13:36;101023.91;;;20.71;74.26
9009;BME280;62813;51.424;6.762;2022-08-18T01:16:06;101014.56;;;20.67;74.22
9009;BME280;62813;51.424;6.762;2022-08-18T01:18:52;101009.50;;;20.64;74.30
9009;BME280;62813;51.424;6.762;2022-08-18T01:21:41;101003.66;;;20.60;73.96
9009;BME280;62813;51.424;6.762;2022-08-18T01:24:18;101005.69;;;20.57;74.36
9009;BME280;62813;51.424;6.762;2022-08-18T01:26:48;101004.13;;;20.54;73.72
9009;BME280;62813;51.424;6.762;2022-08-18T01:29:18;101001.63;;;20.41;74.49
9009;BME280;62813;51.424;6.762;2022-08-18T01:31:53;101000.91;;;20.28;74.94
9009;BME280;62813;51.424;6.762;2022-08-18T01:34:24;101005.19;;;20.18;75.71
9009;BME280;62813;51.424;6.762;2022-08-18T01:36:53;100995.34;;;20.09;75.60
9009;BME280;62813;51.424;6.762;2022-08-18T01:39:21;100994.75;;;20.05;76.67
9009;BME280;62813;51.424;6.762;2022-08-18T01:42:08;100994.16;;;20.02;76.27
9009;BME280;62813;51.424;6.762;2022-08-18T01:44:35;100991.59;;;20.00;76.25
9009;BME280;62813;51.424;6.762;2022-08-18T01:47:02;101008.50;;;19.98;76.36
9009;BME280;62813;51.424;6.762;2022-08-18T01:49:29;101012.47;;;20.03;76.40
9009;BME280;62813;51.424;6.762;2022-08-18T01:51:55;101006.81;;;20.08;76.17
9009;BME280;62813;51.424;6.762;2022-08-18T01:54:22;101013.56;;;20.12;76.33
9009;BME280;62813;51.424;6.762;2022-08-18T01:56:50;101017.66;;;20.16;75.95
9009;BME280;62813;51.424;6.762;2022-08-18T01:59:18;101022.91;;;20.16;75.98
9009;BME280;62813;51.424;6.762;2022-08-18T02:01:46;101026.25;;;20.18;75.77
9009;BME280;62813;51.424;6.762;2022-08-18T02:04:21;101031.41;;;20.19;75.67
9009;BME280;62813;51.424;6.762;2022-08-18T02:07:05;101029.06;;;20.28;75.12
9009;BME280;62813;51.424;6.762;2022-08-18T02:09:32;101029.59;;;20.20;75.90
9009;BME280;62813;51.424;6.762;2022-08-18T02:12:00;101033.81;;;20.23;75.98
9009;BME280;62813;51.424;6.762;2022-08-18T02:14:27;101034.22;;;20.29;75.47
9009;BME280;62813;51.424;6.762;2022-08-18T02:16:57;101029.66;;;20.31;75.06
9009;BME280;62813;51.424;6.762;2022-08-18T02:19:32;101037.19;;;20.36;75.37
9009;BME280;62813;51.424;6.762;2022-08-18T02:21:58;101030.38;;;20.33;75.17
9009;BME280;62813;51.424;6.762;2022-08-18T02:24:25;101035.91;;;20.41;74.86
9009;BME280;62813;51.424;6.762;2022-08-18T02:26:52;101028.59;;;20.45;74.42
9009;BME280;62813;51.424;6.762;2022-08-18T02:29:19;101033.03;;;20.44;74.57
9009;BME280;62813;51.424;6.762;2022-08-18T02:31:46;101023.53;;;20.42;74.70
9009;BME280;62813;51.424;6.762;2022-08-18T02:34:14;101031.59;;;20.40;74.52
9009;BME280;62813;51.424;6.762;2022-08-18T02:36:41;101027.03;;;20.42;74.63
9009;BME280;62813;51.424;6.762;2022-08-18T02:39:08;101026.09;;;20.43;74.70
9009;BME280;62813;51.424;6.762;2022-08-18T02:41:35;101019.13;;;20.42;74.75
9009;BME280;62813;51.424;6.762;2022-08-18T02:44:02;101015.03;;;20.50;74.09
9009;BME280;62813;51.424;6.762;2022-08-18T02:46:30;101019.47;;;20.60;74.41
9009;BME280;62813;51.424;6.762;2022-08-18T02:48:58;101016.13;;;20.69;73.87
9009;BME280;62813;51.424;6.762;2022-08-18T02:51:25;101013.13;;;20.74;73.59
9009;BME280;62813;51.424;6.762;2022-08-18T02:53:55;101014.53;;;20.78;73.10
9009;BME280;62813;51.424;6.762;2022-08-18T02:56:27;101012.16;;;20.75;73.27
9009;BME280;62813;51.424;6.762;2022-08-18T02:59:11;101021.50;;;20.79;72.43
9009;BME280;62813;51.424;6.762;2022-08-18T03:01:41;101022.00;;;20.73;72.62
9009;BME280;62813;51.424;6.762;2022-08-18T03:04:12;101029.19;;;20.60;73.06
9009;BME280;62813;51.424;6.762;2022-08-18T03:06:41;101028.50;;;20.58;73.81
9009;BME280;62813;51.424;6.762;2022-08-18T03:09:13;101024.28;;;20.55;73.97
9009;BME280;62813;51.424;6.762;2022-08-18T03:11:40;101017.06;;;20.57;73.42
9009;BME280;62813;51.424;6.762;2022-08-18T03:14:09;101018.06;;;20.45;73.90
9009;BME280;62813;51.424;6.762;2022-08-18T03:16:39;101019.38;;;20.39;74.55
9009;BME280;62813;51.424;6.762;2022-08-18T03:19:24;101013.84;;;20.42;74.75
9009;BME280;62813;51.424;6.762;2022-08-18T03:21:54;101015.75;;;20.40;74.21
9009;BME280;62813;51.424;6.762;2022-08-18T03:24:26;101008.56;;;20.42;74.92
9009;BME280;62813;51.424;6.762;2022-08-18T03:26:56;100992.53;;;20.45;74.36
9009;BME280;62813;51.424;6.762;2022-08-18T03:29:23;100993.00;;;20.51;74.26
9009;BME280;62813;51.424;6.762;2022-08-18T03:31:57;100990.38;;;20.51;74.37
9009;BME280;62813;51.424;6.762;2022-08-18T03:34:24;100995.03;;;20.47;74.39
9009;BME280;62813;51.424;6.762;2022-08-18T03:36:50;100996.34;;;20.41;74.74
9009;BME280;62813;51.424;6.762;2022-08-18T03:39:18;100994.53;;;20.42;74.57
9009;BME280;62813;51.424;6.762;2022-08-18T03:41:46;101002.84;;;20.37;75.42
9009;BME280;62813;51.424;6.762;2022-08-18T03:44:28;101009.66;;;20.40;74.66
9009;BME280;62813;51.424;6.762;2022-08-18T03:46:56;101020.19;;;20.40;74.93
9009;BME280;62813;51.424;6.762;2022-08-18T03:49:23;101016.72;;;20.39;75.16
9009;BME280;62813;51.424;6.762;2022-08-18T03:51:52;101021.28;;;20.37;75.21
9009;BME280;62813;51.424;6.762;2022-08-18T03:54:19;101019.63;;;20.36;75.05
9009;BME280;62813;51.424;6.762;2022-08-18T03:56:47;101012.63;;;20.35;74.78
9009;BME280;62813;51.424;6.762;2022-08-18T03:59:18;101007.16;;;20.38;74.94
9009;BME280;62813;51.424;6.762;2022-08-18T04:01:47;101015.28;;;20.35;75.12
9009;BME280;62813;51.424;6.762;2022-08-18T04:04:19;101014.81;;;20.30;75.74
9009;BME280;62813;51.424;6.762;2022-08-18T04:06:56;101017.53;;;20.29;75.34
9009;BME280;62813;51.424;6.762;2022-08-18T04:09:26;101014.28;;;20.25;75.82
9009;BME280;62813;51.424;6.762;2022-08-18T04:11:54;101022.81;;;20.29;75.40
9009;BME280;62813;51.424;6.762;2022-08-18T04:14:24;101013.47;;;20.36;75.50
9009;BME280;62813;51.424;6.762;2022-08-18T04:16:56;101012.41;;;20.38;75.29
9009;BME280;62813;51.424;6.762;2022-08-18T04:19:23;101015.06;;;20.38;74.91
9009;BME280;62813;51.424;6.762;2022-08-18T04:21:54;101011.47;;;20.39;74.65
9009;BME280;62813;51.424;6.762;2022-08-18T04:24:21;101017.91;;;20.35;75.05
9009;BME280;62813;51.424;6.762;2022-08-18T04:26:48;101013.72;;;20.33;75.28
9009;BME280;62813;51.424;6.762;2022-08-18T04:29:17;101018.72;;;20.25;75.44
9009;BME280;62813;51.424;6.762;2022-08-18T04:31:44;101025.56;;;20.27;75.41
9009;BME280;62813;51.424;6.762;2022-08-18T04:34:11;101026.91;;;20.33;74.81
9009;BME280;62813;51.424;6.762;2022-08-18T04:36:40;101022.47;;;20.33;75.36
9009;BME280;62813;51.424;6.762;2022-08-18T04:39:10;101028.47;;;20.35;74.98
9009;BME280;62813;51.424;6.762;2022-08-18T04:41:38;101015.41;;;20.34;75.29
9009;BME280;62813;51.424;6.762;2022-08-18T04:44:07;101015.75;;;20.40;74.82
9009;BME280;62813;51.424;6.762;2022-08-18T04:46:39;101019.94;;;20.43;75.01
9009;BME280;62813;51.424;6.762;2022-08-18T04:49:07;101008.34;;;20.45;75.19
9009;BME280;62813;51.424;6.762;2022-08-18T04:51:35;101016.97;;;20.48;74.82
9009;BME280;62813;51.424;6.762;2022-08-18T04:54:23;101011.69;;;20.48;75.03
9009;BME280;62813;51.424;6.762;2022-08-18T04:56:50;101017.44;;;20.53;74.81
9009;BME280;62813;51.424;6.762;2022-08-18T04:59:17;101016.97;;;20.48;75.02
9009;BME280;62813;51.424;6.762;2022-08-18T05:01:46;101017.81;;;20.48;74.99
9009;BME280;62813;51.424;6.762;2022-08-18T05:04:15;101015.28;;;20.47;74.67
9009;BME280;62813;51.424;6.762;2022-08-18T05:06:43;101010.72;;;20.49;75.72
9009;BME280;62813;51.424;6.762;2022-08-18T05:09:12;101021.75;;;20.54;75.04
9009;BME280;62813;51.424;6.762;2022-08-18T05:11:48;101027.13;;;20.63;74.65
9009;BME280;62813;51.424;6.762;2022-08-18T05:14:16;101027.25;;;20.62;74.68
9009;BME280;62813;51.424;6.762;2022-08-18T05:16:43;101029.06;;;20.61;74.97
9009;BME280;62813;51.424;6.762;2022-08-18T05:19:16;101034.34;;;20.61;74.82
9009;BME280;62813;51.424;6.762;2022-08-18T05:21:49;101039.50;;;20.63;75.23
9009;BME280;62813;51.424;6.762;2022-08-18T05:24:17;101038.78;;;20.61;75.21
9009;BME280;62813;51.424;6.762;2022-08-18T05:26:47;101044.91;;;20.61;74.96
9009;BME280;62813;51.424;6.762;2022-08-18T05:29:15;101058.22;;;20.60;75.54
9009;BME280;62813;51.424;6.762;2022-08-18T05:31:45;101049.34;;;20.61;75.22
9009;BME280;62813;51.424;6.762;2022-08-18T05:34:12;101052.69;;;20.63;75.55
9009;BME280;62813;51.424;6.762;2022-08-18T05:42:03;101070.69;;;20.58;75.70
9009;BME280;62813;51.424;6.762;2022-08-18T05:44:39;101071.25;;;20.61;75.85
9009;BME280;62813;51.424;6.762;2022-08-18T05:47:16;101073.53;;;20.55;75.63
9009;BME280;62813;51.424;6.762;2022-08-18T05:49:46;101070.31;;;20.51;76.68
9009;BME280;62813;51.424;6.762;2022-08-18T05:52:38;101076.78;;;20.58;76.04
9009;BME280;62813;51.424;6.762;2022-08-18T05:55:14;101075.72;;;20.61;75.51
9009;BME280;62813;51.424;6.762;2022-08-18T05:58:04;101074.63;;;20.52;75.72
9009;BME280;62813;51.424;6.762;2022-08-18T06:00:34;101072.56;;;20.56;76.29
9009;BME280;62813;51.424;6.762;2022-08-18T06:03:13;101079.31;;;20.60;76.32
9009;BME280;62813;51.424;6.762;2022-08-18T06:05:51;101086.97;;;20.63;76.11
9009;BME280;62813;51.424;6.762;2022-08-18T06:08:24;101075.56;;;20.62;75.77
9009;BME280;62813;51.424;6.762;2022-08-18T06:10:53;101077.25;;;20.63;75.57
9009;BME280;62813;51.424;6.762;2022-08-18T06:13:20;101075.94;;;20.69;75.88
9009;BME280;62813;51.424;6.762;2022-08-18T06:15:56;101074.97;;;20.70;75.68
9009;BME280;62813;51.424;6.762;2022-08-18T06:18:36;101081.69;;;20.63;75.88
9009;BME280;62813;51.424;6.762;2022-08-18T06:21:32;101090.22;;;20.66;75.95
9009;BME280;62813;51.424;6.762;2022-08-18T06:24:38;101092.13;;;20.64;75.92
9009;BME280;62813;51.424;6.762;2022-08-18T06:40:37;101099.09;;;20.65;76.14
9009;BME280;62813;51.424;6.762;2022-08-18T06:43:08;101103.53;;;20.65;76.36
9009;BME280;62813;51.424;6.762;2022-08-18T06:45:38;101108.44;;;20.69;75.92
9009;BME280;62813;51.424;6.762;2022-08-18T06:51:16;101113.59;;;20.71;75.52
9009;BME280;62813;51.424;6.762;2022-08-18T06:56:22;101110.84;;;20.72;76.18
9009;BME280;62813;51.424;6.762;2022-08-18T06:58:52;101109.75;;;20.75;75.85
9009;BME280;62813;51.424;6.762;2022-08-18T07:01:22;101113.09;;;20.77;76.27
9009;BME280;62813;51.424;6.762;2022-08-18T07:03:54;101117.19;;;20.81;75.73
9009;BME280;62813;51.424;6.762;2022-08-18T07:08:53;101119.81;;;20.92;74.97
9009;BME280;62813;51.424;6.762;2022-08-18T07:13:55;101124.00;;;21.06;74.17
9009;BME280;62813;51.424;6.762;2022-08-18T07:16:41;101122.13;;;21.08;74.24
9009;BME280;62813;51.424;6.762;2022-08-18T07:19:28;101117.22;;;21.15;74.12
9009;BME280;62813;51.424;6.762;2022-08-18T07:22:14;101116.56;;;21.11;73.84
9009;BME280;62813;51.424;6.762;2022-08-18T07:24:46;101118.91;;;21.16;73.39
9009;BME280;62813;51.424;6.762;2022-08-18T07:27:17;101121.72;;;21.13;73.57
9009;BME280;62813;51.424;6.762;2022-08-18T07:35:29;101114.06;;;21.43;72.32
9009;BME280;62813;51.424;6.762;2022-08-18T07:41:15;101102.91;;;21.72;71.23
9009;BME280;62813;51.424;6.762;2022-08-18T07:43:56;101112.50;;;21.73;70.79
9009;BME280;62813;51.424;6.762;2022-08-18T07:46:31;101119.59;;;21.72;71.39
9009;BME280;62813;51.424;6.762;2022-08-18T07:49:01;101118.97;;;21.80;71.14
9009;BME280;62813;51.424;6.762;2022-08-18T07:52:01;101112.25;;;21.76;70.23
9009;BME280;62813;51.424;6.762;2022-08-18T08:00:22;101112.00;;;21.79;70.18
9009;BME280;62813;51.424;6.762;2022-08-18T08:03:47;101107.47;;;21.70;69.99
9009;BME280;62813;51.424;6.762;2022-08-18T08:12:08;101115.16;;;21.73;70.59
9009;BME280;62813;51.424;6.762;2022-08-18T08:14:45;101113.69;;;21.80;70.23
9009;BME280;62813;51.424;6.762;2022-08-18T08:17:29;101109.88;;;21.73;70.01
9009;BME280;62813;51.424;6.762;2022-08-18T08:22:30;101117.31;;;21.68;69.87
9009;BME280;62813;51.424;6.762;2022-08-18T08:25:23;101112.97;;;21.78;69.41
9009;BME280;62813;51.424;6.762;2022-08-18T08:34:14;101115.94;;;22.17;68.19
9009;BME280;62813;51.424;6.762;2022-08-18T08:36:45;101110.69;;;22.26;67.82
9009;BME280;62813;51.424;6.762;2022-08-18T08:41:55;101116.63;;;22.40;67.19
9009;BME280;62813;51.424;6.762;2022-08-18T08:44:50;101123.88;;;22.38;67.05
9009;BME280;62813;51.424;6.762;2022-08-18T08:50:38;101136.44;;;22.24;66.91
9009;BME280;62813;51.424;6.762;2022-08-18T08:53:13;101136.06;;;22.29;67.16
9009;BME280;62813;51.424;6.762;2022-08-18T08:55:47;101131.44;;;22.42;66.34
9009;BME280;62813;51.424;6.762;2022-08-18T08:58:31;101137.88;;;22.49;65.70
9009;BME280;62813;51.424;6.762;2022-08-18T09:01:02;101136.19;;;22.48;65.35
9009;BME280;62813;51.424;6.762;2022-08-18T09:03:49;101143.91;;;22.61;65.64
9009;BME280;62813;51.424;6.762;2022-08-18T09:06:38;101142.72;;;22.75;64.83
9009;BME280;62813;51.424;6.762;2022-08-18T09:17:07;101147.94;;;23.07;63.12
9009;BME280;62813;51.424;6.762;2022-08-18T09:22:52;101136.41;;;22.87;63.79
9009;BME280;62813;51.424;6.762;2022-08-18T09:42:08;101131.91;;;22.78;63.94
9009;BME280;62813;51.424;6.762;2022-08-18T10:06:41;101129.16;;;23.89;59.53
9009;BME280;62813;51.424;6.762;2022-08-18T10:09:15;101132.34;;;23.92;58.69
9009;BME280;62813;51.424;6.762;2022-08-18T10:21:17;101128.88;;;23.92;57.45
9009;BME280;62813;51.424;6.762;2022-08-18T10:23:50;101133.91;;;23.76;57.78
9009;BME280;62813;51.424;6.762;2022-08-18T10:34:46;101116.81;;;23.39;59.52
9009;BME280;62813;51.424;6.762;2022-08-18T10:37:25;101124.56;;;23.31;59.74
9009;BME280;62813;51.424;6.762;2022-08-18T10:39:59;101115.69;;;23.32;59.97
9009;BME280;62813;51.424;6.762;2022-08-18T10:42:31;101127.13;;;23.42;59.06
9009;BME280;62813;51.424;6.762;2022-08-18T10:45:11;101131.00;;;23.38;59.28
9009;BME280;62813;51.424;6.762;2022-08-18T10:48:25;101129.75;;;23.33;59.40
9009;BME280;62813;51.424;6.762;2022-08-18T10:51:00;101136.59;;;23.35;59.36
9009;BME280;62813;51.424;6.762;2022-08-18T11:07:24;101131.91;;;22.78;61.15
9009;BME280;62813;51.424;6.762;2022-08-18T11:09:56;101131.44;;;22.73;61.03
9009;BME280;62813;51.424;6.762;2022-08-18T11:15:42;101117.34;;;22.62;60.98
9009;BME280;62813;51.424;6.762;2022-08-18T11:26:36;101114.88;;;22.71;59.75
9009;BME280;62813;51.424;6.762;2022-08-18T11:29:39;101110.09;;;22.64;59.63
9009;BME280;62813;51.424;6.762;2022-08-18T11:32:26;101111.06;;;22.63;59.39
9009;BME280;62813;51.424;6.762;2022-08-18T11:38:15;101114.41;;;22.66;60.29
9009;BME280;62813;51.424;6.762;2022-08-18T11:43:13;101100.13;;;23.08;59.43
9009;BME280;62813;51.424;6.762;2022-08-18T11:51:29;101081.59;;;23.18;58.46
9009;BME280;62813;51.424;6.762;2022-08-18T11:54:00;101080.50;;;23.21;59.08
9009;BME280;62813;51.424;6.762;2022-08-18T11:56:36;101089.34;;;23.40;58.14
9009;BME280;62813;51.424;6.762;2022-08-18T12:02:18;101081.69;;;23.86;57.12
9009;BME280;62813;51.424;6.762;2022-08-18T12:04:50;101087.78;;;24.15;55.99
9009;BME280;62813;51.424;6.762;2022-08-18T12:07:34;101090.88;;;24.20;54.69
9009;BME280;62813;51.424;6.762;2022-08-18T12:10:34;101085.03;;;23.88;55.51
9009;BME280;62813;51.424;6.762;2022-08-18T12:13:03;101079.44;;;24.00;55.70
9009;BME280;62813;51.424;6.762;2022-08-18T12:15:34;101076.38;;;24.05;55.68
9009;BME280;62813;51.424;6.762;2022-08-18T12:18:14;101068.53;;;24.13;54.37
9009;BME280;62813;51.424;6.762;2022-08-18T12:20:55;101058.25;;;24.10;55.17
9009;BME280;62813;51.424;6.762;2022-08-18T12:23:22;101058.06;;;24.21;54.88
9009;BME280;62813;51.424;6.762;2022-08-18T12:25:49;101062.09;;;24.35;53.98
9009;BME280;62813;51.424;6.762;2022-08-18T12:28:18;101059.03;;;24.40;53.37
9009;BME280;62813;51.424;6.762;2022-08-18T12:30:48;101054.41;;;24.42;53.67
9009;BME280;62813;51.424;6.762;2022-08-18T12:33:23;101059.59;;;24.34;53.34
9009;BME280;62813;51.424;6.762;2022-08-18T12:35:59;101070.47;;;24.31;53.52
9009;BME280;62813;51.424;6.762;2022-08-18T12:38:31;101074.38;;;24.36;53.48
9009;BME280;62813;51.424;6.762;2022-08-18T12:41:02;101075.47;;;24.53;53.51
9009;BME280;62813;51.424;6.762;2022-08-18T12:43:30;101067.94;;;24.76;52.80
9009;BME280;62813;51.424;6.762;2022-08-18T12:46:01;101076.75;;;24.76;52.96
9009;BME280;62813;51.424;6.762;2022-08-18T12:48:29;101084.88;;;24.75;52.40
9009;BME280;62813;51.424;6.762;2022-08-18T12:50:56;101099.41;;;24.71;52.25
9009;BME280;62813;51.424;6.762;2022-08-18T12:53:43;101113.22;;;24.74;52.03
9009;BME280;62813;51.424;6.762;2022-08-18T12:56:29;101116.25;;;24.79;51.38
9009;BME280;62813;51.424;6.762;2022-08-18T12:59:00;101110.59;;;24.65;51.31
9009;BME280;62813;51.424;6.762;2022-08-18T13:01:31;101104.19;;;24.67;51.36
9009;BME280;62813;51.424;6.762;2022-08-18T13:03:58;101105.47;;;24.91;51.57
9009;BME280;62813;51.424;6.762;2022-08-18T13:06:44;101108.91;;;25.28;50.63
9009;BME280;62813;51.424;6.762;2022-08-18T13:09:28;101105.38;;;25.55;48.80
9009;BME280;62813;51.424;6.762;2022-08-18T13:12:07;101093.38;;;25.69;49.09
9009;BME280;62813;51.424;6.762;2022-08-18T13:14:41;101081.09;;;25.86;49.31
9009;BME280;62813;51.424;6.762;2022-08-18T13:17:09;101073.81;;;26.14;48.71
9009;BME280;62813;51.424;6.762;2022-08-18T13:19:56;101063.88;;;26.16;48.03
9009;BME280;62813;51.424;6.762;2022-08-18T13:22:23;101051.34;;;26.34;47.49
9009;BME280;62813;51.424;6.762;2022-08-18T13:24:57;101052.13;;;26.53;47.01
9009;BME280;62813;51.424;6.762;2022-08-18T13:27:25;101056.94;;;26.23;47.16
9009;BME280;62813;51.424;6.762;2022-08-18T13:29:58;101060.91;;;25.93;48.70
9009;BME280;62813;51.424;6.762;2022-08-18T13:32:24;101060.13;;;25.83;47.95
9009;BME280;62813;51.424;6.762;2022-08-18T13:34:53;101064.25;;;25.59;49.03
9009;BME280;62813;51.424;6.762;2022-08-18T13:37:22;101055.03;;;25.54;49.02
9009;BME280;62813;51.424;6.762;2022-08-18T13:39:54;101040.63;;;25.74;48.94
9009;BME280;62813;51.424;6.762;2022-08-18T13:42:20;101040.06;;;25.88;48.25
9009;BME280;62813;51.424;6.762;2022-08-18T13:44:59;101039.50;;;26.03;48.11
9009;BME280;62813;51.424;6.762;2022-08-18T13:47:49;101033.44;;;26.18;46.98
9009;BME280;62813;51.424;6.762;2022-08-18T13:50:17;101043.72;;;25.87;47.40
9009;BME280;62813;51.424;6.762;2022-08-18T13:52:44;101043.03;;;25.50;48.47
9009;BME280;62813;51.424;6.762;2022-08-18T13:55:14;101043.28;;;25.39;48.71
9009;BME280;62813;51.424;6.762;2022-08-18T13:57:43;101023.28;;;25.70;47.82
9009;BME280;62813;51.424;6.762;2022-08-18T14:00:18;101018.72;;;26.32;46.57
9009;BME280;62813;51.424;6.762;2022-08-18T14:02:56;101014.19;;;26.51;46.02
9009;BME280;62813;51.424;6.762;2022-08-18T14:05:24;100999.00;;;26.85;44.96
9009;BME280;62813;51.424;6.762;2022-08-18T14:08:02;101003.81;;;26.82;45.62
9009;BME280;62813;51.424;6.762;2022-08-18T14:10:31;100995.63;;;26.67;45.54
9009;BME280;62813;51.424;6.762;2022-08-18T14:12:59;101002.09;;;27.23;45.21
9009;BME280;62813;51.424;6.762;2022-08-18T14:15:46;101005.13;;;27.28;43.84
9009;BME280;62813;51.424;6.762;2022-08-18T14:18:19;100995.78;;;27.32;44.17
9009;BME280;62813;51.424;6.762;2022-08-18T14:20:46;100999.41;;;27.07;44.43
9009;BME280;62813;51.424;6.762;2022-08-18T14:23:34;101003.38;;;27.03;44.56
9009;BME280;62813;51.424;6.762;2022-08-18T14:26:20;101004.59;;;27.16;44.64
9009;BME280;62813;51.424;6.762;2022-08-18T14:29:05;100999.91;;;26.52;45.81
9009;BME280;62813;51.424;6.762;2022-08-18T14:31:36;101001.22;;;26.22;46.68
9009;BME280;62813;51.424;6.762;2022-08-18T14:34:03;101005.84;;;26.20;46.72
9009;BME280;62813;51.424;6.762;2022-08-18T14:36:30;101012.75;;;26.64;46.24
9009;BME280;62813;51.424;6.762;2022-08-18T14:38:58;101006.91;;;27.19;45.08
9009;BME280;62813;51.424;6.762;2022-08-18T14:41:25;101003.63;;;27.50;44.02
9009;BME280;62813;51.424;6.762;2022-08-18T14:43:53;101000.13;;;27.41;43.92
9009;BME280;62813;51.424;6.762;2022-08-18T14:46:40;100992.78;;;27.51;43.89
9009;BME280;62813;51.424;6.762;2022-08-18T14:49:17;100981.75;;;27.95;43.51
9009;BME280;62813;51.424;6.762;2022-08-18T14:51:54;100987.22;;;28.10;42.67
9009;BME280;62813;51.424;6.762;2022-08-18T14:54:22;100993.78;;;27.99;43.06
9009;BME280;62813;51.424;6.762;2022-08-18T14:56:54;100996.13;;;27.78;44.04
9009;BME280;62813;51.424;6.762;2022-08-18T14:59:21;100992.13;;;27.66;44.24
9009;BME280;62813;51.424;6.762;2022-08-18T15:01:51;100992.28;;;27.40;44.21
9009;BME280;62813;51.424;6.762;2022-08-18T15:04:19;100993.44;;;27.21;44.68
9009;BME280;62813;51.424;6.762;2022-08-18T15:06:47;100994.38;;;27.04;45.38
9009;BME280;62813;51.424;6.762;2022-08-18T15:09:22;100999.09;;;27.67;44.17
9009;BME280;62813;51.424;6.762;2022-08-18T15:11:52;100991.69;;;28.18;43.03
9009;BME280;62813;51.424;6.762;2022-08-18T15:14:22;100997.00;;;28.34;42.46
9009;BME280;62813;51.424;6.762;2022-08-18T15:16:59;100989.41;;;28.06;43.18
9009;BME280;62813;51.424;6.762;2022-08-18T15:19:26;100989.16;;;27.77;43.70
9009;BME280;62813;51.424;6.762;2022-08-18T15:22:13;100977.47;;;27.37;43.85
9009;BME280;62813;51.424;6.762;2022-08-18T15:24:58;100983.56;;;27.05;44.68
9009;BME280;62813;51.424;6.762;2022-08-18T15:27:46;100979.69;;;26.83;45.59
9009;BME280;62813;51.424;6.762;2022-08-18T15:30:18;100985.31;;;26.72;45.72
9009;BME280;62813;51.424;6.762;2022-08-18T15:32:46;100983.13;;;26.59;45.92
9009;BME280;62813;51.424;6.762;2022-08-18T15:35:16;100984.91;;;26.51;45.83
9009;BME280;62813;51.424;6.762;2022-08-18T15:37:46;100980.63;;;26.32;46.35
9009;BME280;62813;51.424;6.762;2022-08-18T15:40:22;100982.13;;;26.34;46.45
9009;BME280;62813;51.424;6.762;2022-08-18T15:43:05;100972.19;;;26.36;46.72
9009;BME280;62813;51.424;6.762;2022-08-18T15:45:38;100967.28;;;26.50;45.22
9009;BME280;62813;51.424;6.762;2022-08-18T15:48:17;100972.41;;;26.43;45.64
9009;BME280;62813;51.424;6.762;2022-08-18T15:50:45;100974.56;;;26.48;45.96
9009;BME280;62813;51.424;6.762;2022-08-18T15:53:20;100975.94;;;26.52;45.47
9009;BME280;62813;51.424;6.762;2022-08-18T15:55:50;100977.25;;;26.56;45.58
9009;BME280;62813;51.424;6.762;2022-08-18T15:58:18;100983.75;;;26.53;45.58
9009;BME280;62813;51.424;6.762;2022-08-18T16:00:52;100991.41;;;26.56;45.62
9009;BME280;62813;51.424;6.762;2022-08-18T16:03:19;100990.13;;;26.34;45.42
9009;BME280;62813;51.424;6.762;2022-08-18T16:05:48;100989.91;;;26.28;45.20
9009;BME280;62813;51.424;6.762;2022-08-18T16:08:19;100989.41;;;26.24;45.63
9009;BME280;62813;51.424;6.762;2022-08-18T16:10:47;100982.09;;;26.26;45.60
9009;BME280;62813;51.424;6.762;2022-08-18T16:13:13;100987.13;;;26.29;45.82
9009;BME280;62813;51.424;6.762;2022-08-18T16:15:42;100981.81;;;26.29;45.51
9009;BME280;62813;51.424;6.762;2022-08-18T16:18:13;100985.09;;;26.23;45.56
9009;BME280;62813;51.424;6.762;2022-08-18T16:20:41;100985.56;;;26.18;46.30
9009;BME280;62813;51.424;6.762;2022-08-18T16:23:09;100984.56;;;26.20;46.99
9009;BME280;62813;51.424;6.762;2022-08-18T16:25:38;100983.56;;;26.21;47.22